Time;durP1;ratioP1;P1;durP2;ratioP2;P2;SDS_P1;SDS_P2;PMS_P1;PMS_P2;Temp;Humidity;BMP_temperature;BMP_pressure;BME280_temperature;BME280_humidity;BME280_pressure;Samples;Min_cycle;Max_cycle;Signal;HPM_P1;HPM_P2
2022/06/20 00:01:03;;;;;;;9.35;3.17;;;;;;;13.61;77.84;101255.94;5029628;28;20554;-72
2022/06/20 00:03:33;;;;;;;12.05;2.63;;;;;;;13.47;78.07;101246.09;5040852;28;20041;-71
2022/06/20 00:05:59;;;;;;;8.13;2.45;;;;;;;13.44;78.23;101252.69;5031256;28;20045;-72
2022/06/20 00:08:24;;;;;;;10.57;2.50;;;;;;;13.40;78.42;101261.25;5041433;28;20017;-70
2022/06/20 00:10:51;;;;;;;10.98;2.50;;;;;;;13.36;77.83;101255.13;5050838;28;20032;-70
2022/06/20 00:13:31;;;;;;;9.18;2.10;;;;;;;13.32;77.90;101250.03;5045361;28;20053;-71
2022/06/20 00:15:57;;;;;;;9.10;2.75;;;;;;;13.27;78.57;101256.72;5031802;28;20083;-72
2022/06/20 00:18:23;;;;;;;8.60;2.63;;;;;;;13.22;78.25;101267.13;5031353;28;20447;-71
2022/06/20 00:20:49;;;;;;;8.20;2.75;;;;;;;13.16;79.38;101264.84;5030653;28;20065;-71
2022/06/20 00:23:14;;;;;;;8.60;2.00;;;;;;;13.19;78.10;101269.19;5046434;28;20045;-72
2022/06/20 00:25:41;;;;;;;8.20;2.30;;;;;;;13.21;78.09;101270.81;5050828;28;20116;-71
2022/06/20 00:28:07;;;;;;;11.52;2.22;;;;;;;13.23;78.08;101293.44;5040709;28;20037;-71
2022/06/20 00:30:34;;;;;;;7.80;1.92;;;;;;;13.29;77.43;101311.25;5022398;28;20036;-71
2022/06/20 00:32:59;;;;;;;5.03;1.75;;;;;;;13.37;78.53;101321.59;5039802;28;20045;-71
2022/06/20 00:35:24;;;;;;;7.95;2.50;;;;;;;13.38;78.71;101323.31;5031446;28;20095;-72
2022/06/20 00:37:53;;;;;;;11.13;2.10;;;;;;;13.40;77.93;101335.03;5030763;28;20041;-72
2022/06/20 00:40:25;;;;;;;12.85;2.72;;;;;;;13.44;78.56;101358.41;5030340;28;20488;-71
2022/06/20 00:42:51;;;;;;;9.82;2.35;;;;;;;13.48;78.49;101371.72;5030567;28;20037;-73
2022/06/20 00:45:19;;;;;;;8.27;2.00;;;;;;;13.52;78.56;101383.28;5030209;28;20033;-72
2022/06/20 00:47:47;;;;;;;9.77;2.30;;;;;;;13.56;78.63;101405.78;5030381;28;20389;-71
2022/06/20 00:50:28;;;;;;;8.60;2.17;;;;;;;13.61;78.73;101442.72;5030061;28;20036;-73
2022/06/20 00:52:59;;;;;;;8.05;2.00;;;;;;;13.60;79.85;101473.78;5030429;28;20038;-71
2022/06/20 00:55:35;;;;;;;6.72;2.20;;;;;;;13.60;80.14;101503.88;5028770;28;20095;-72
2022/06/20 00:58:20;;;;;;;6.18;2.10;;;;;;;13.61;78.89;101504.72;5030244;28;20048;-72
2022/06/20 01:00:46;;;;;;;7.53;2.40;;;;;;;13.57;78.65;101504.13;5030144;28;20037;-72
2022/06/20 01:03:18;;;;;;;8.60;1.90;;;;;;;13.57;78.88;101484.06;5040978;28;20028;-70
2022/06/20 01:05:49;;;;;;;9.52;2.33;;;;;;;13.50;79.63;101461.81;5029903;28;20456;-71
2022/06/20 01:08:37;;;;;;;8.80;2.35;;;;;;;13.47;78.55;101446.50;5030324;28;20091;-72
2022/06/20 01:11:13;;;;;;;8.18;2.10;;;;;;;13.44;79.51;101430.34;5029871;28;20067;-71
2022/06/20 01:13:39;;;;;;;5.40;2.15;;;;;;;13.44;79.64;101432.22;5042135;28;20048;-72
2022/06/20 01:16:27;;;;;;;9.77;2.72;;;;;;;13.45;79.64;101423.88;5031677;28;20033;-71
2022/06/20 01:18:55;;;;;;;8.70;3.22;;;;;;;13.44;78.67;101405.75;5029407;28;20037;-73
2022/06/20 01:21:24;;;;;;;5.15;2.70;;;;;;;13.48;79.19;101406.41;5040346;28;20384;-71
2022/06/20 01:24:27;;;;;;;7.63;2.80;;;;;;;13.52;78.97;101396.94;5049676;28;20139;-72
2022/06/20 01:27:23;;;;;;;6.25;2.08;;;;;;;13.46;79.16;101381.88;5030023;28;20034;-73
2022/06/20 01:29:49;;;;;;;4.72;2.08;;;;;;;13.36;80.68;101367.19;5016986;28;20073;-71
2022/06/20 01:32:15;;;;;;;8.23;2.47;;;;;;;13.21;81.13;101362.84;5033499;28;20083;-72
2022/06/20 01:34:41;;;;;;;6.30;2.35;;;;;;;13.16;80.27;101370.53;5036776;28;20026;-71
2022/06/20 01:37:26;;;;;;;10.18;2.35;;;;;;;13.16;80.08;101374.13;5029491;28;20045;-71
2022/06/20 01:40:05;;;;;;;11.07;2.35;;;;;;;13.18;79.76;101369.41;5043868;28;20053;-72
2022/06/20 01:42:32;;;;;;;7.40;2.00;;;;;;;13.14;80.52;101356.97;5030123;28;20460;-73
2022/06/20 01:47:53;;;;;;;12.20;2.63;;;;;;;12.93;81.40;101334.88;5029820;28;20041;-72
2022/06/20 01:50:18;;;;;;;8.15;2.15;;;;;;;12.84;81.15;101335.56;5029388;28;20052;-71
2022/06/20 01:52:45;;;;;;;9.20;3.03;;;;;;;12.91;80.41;101338.69;5029459;28;20057;-72
2022/06/20 01:55:18;;;;;;;5.05;2.35;;;;;;;12.94;80.41;101328.41;5028819;28;20049;-72
2022/06/20 01:57:48;;;;;;;5.78;2.00;;;;;;;12.90;81.06;101329.63;5029561;28;20144;-72
2022/06/20 02:00:17;;;;;;;10.27;2.38;;;;;;;12.86;80.75;101333.56;5029505;28;20469;-72
2022/06/20 02:02:46;;;;;;;9.55;2.45;;;;;;;12.89;80.31;101335.22;5035776;28;20172;-73
2022/06/20 02:05:17;;;;;;;7.82;2.67;;;;;;;12.93;81.02;101328.53;5032286;28;20079;-73
2022/06/20 02:07:43;;;;;;;8.73;2.55;;;;;;;12.94;80.57;101325.69;5028920;28;20140;-72
2022/06/20 02:10:12;;;;;;;6.35;2.05;;;;;;;12.94;81.38;101316.63;5029132;28;20104;-73
2022/06/20 02:12:40;;;;;;;11.93;3.00;;;;;;;12.88;81.19;101306.16;5038246;28;20068;-72
2022/06/20 02:15:07;;;;;;;10.75;3.00;;;;;;;12.79;81.63;101301.38;5029568;28;20045;-71
2022/06/20 02:17:40;;;;;;;8.38;2.63;;;;;;;12.78;80.37;101305.97;5029182;28;20595;-72
2022/06/20 02:20:07;;;;;;;;;;;;;;;12.86;79.58;101294.47;5029581;28;20144;-73
2022/06/20 02:22:35;;;;;;;11.02;3.20;;;;;;;12.81;80.55;101297.53;5029135;28;19917;-73
2022/06/20 02:25:08;;;;;;;9.95;2.58;;;;;;;12.77;80.23;101280.50;5028072;28;20063;-73
2022/06/20 02:27:38;;;;;;;8.43;2.50;;;;;;;12.75;81.39;101281.63;5028864;28;20037;-71
2022/06/20 02:30:06;;;;;;;5.93;2.50;;;;;;;12.73;80.85;101280.88;5029139;28;20384;-72
2022/06/20 02:32:44;;;;;;;8.68;2.80;;;;;;;12.70;80.66;101276.50;5035536;28;20487;-73
2022/06/20 02:35:16;;;;;;;8.40;2.78;;;;;;;12.66;80.99;101266.78;5046802;28;20087;-72
2022/06/20 02:37:42;;;;;;;9.63;2.08;;;;;;;12.65;80.40;101272.38;5047762;28;20487;-73
2022/06/20 02:40:13;;;;;;;5.75;2.20;;;;;;;12.62;81.44;101276.19;5046693;28;20025;-72
2022/06/20 02:42:50;;;;;;;10.50;2.50;;;;;;;12.63;80.57;101275.19;5029365;28;20489;-71
2022/06/20 02:45:17;;;;;;;7.32;2.10;;;;;;;12.68;79.64;101280.31;5029566;28;20480;-72
2022/06/20 02:47:46;;;;;;;9.23;2.20;;;;;;;12.68;79.85;101275.75;5028971;28;20472;-71
2022/06/20 02:50:13;;;;;;;7.30;2.25;;;;;;;12.65;79.84;101265.06;5027513;28;20037;-73
2022/06/20 02:52:51;;;;;;;8.65;2.30;;;;;;;12.64;79.72;101257.88;5027497;28;20047;-72
2022/06/20 02:55:18;;;;;;;5.88;2.15;;;;;;;12.60;80.19;101260.94;5027620;28;20037;-73
2022/06/20 02:57:50;;;;;;;7.38;2.60;;;;;;;12.54;80.49;101240.41;5027631;28;20025;-72
2022/06/20 03:00:25;;;;;;;9.60;1.98;;;;;;;12.50;80.02;101236.19;5035439;28;20143;-72
2022/06/20 03:02:57;;;;;;;9.00;2.42;;;;;;;12.44;80.32;101222.97;5037564;28;20064;-72
2022/06/20 03:05:23;;;;;;;4.57;1.60;;;;;;;12.38;80.29;101217.97;5042872;28;20041;-70
2022/06/20 03:07:49;;;;;;;5.07;1.98;;;;;;;12.37;81.07;101216.25;5030843;28;20112;-72
2022/06/20 03:10:33;;;;;;;10.30;2.00;;;;;;;12.34;80.11;101219.19;5032783;28;20124;-73
2022/06/20 03:12:59;;;;;;;10.60;2.22;;;;;;;12.33;80.17;101221.06;5033196;28;20044;-73
2022/06/20 03:15:25;;;;;;;8.77;2.25;;;;;;;12.36;79.80;101231.75;5032837;28;20117;-74
2022/06/20 03:17:53;;;;;;;7.90;2.83;;;;;;;12.37;80.62;101238.06;5030928;28;20021;-74
2022/06/20 03:20:21;;;;;;;5.60;2.40;;;;;;;12.35;80.04;101238.16;5033664;28;20037;-74
2022/06/20 03:23:05;;;;;;;8.80;2.10;;;;;;;12.38;79.99;101229.75;5032196;28;20037;-74
2022/06/20 03:25:30;;;;;;;4.72;1.80;;;;;;;12.40;79.87;101236.00;5031344;28;20068;-72
2022/06/20 03:27:56;;;;;;;9.18;2.20;;;;;;;12.40;79.64;101254.19;5033107;28;20080;-72
2022/06/20 03:30:33;;;;;;;9.75;2.08;;;;;;;12.44;79.76;101263.91;5030911;28;20120;-73
2022/06/20 03:33:01;;;;;;;9.77;2.17;;;;;;;12.49;80.01;101269.91;5042507;28;20183;-71
2022/06/20 03:35:30;;;;;;;6.53;2.33;;;;;;;12.51;80.36;101262.47;5046919;28;20041;-73
2022/06/20 03:37:58;;;;;;;4.93;1.90;;;;;;;12.51;80.46;101254.28;5030975;28;20037;-71
2022/06/20 03:40:25;;;;;;;6.50;2.03;;;;;;;12.50;80.11;101266.22;5032220;28;20060;-73
2022/06/20 03:42:52;;;;;;;6.95;1.70;;;;;;;12.51;80.06;101270.69;5031170;28;20533;-72
2022/06/20 03:45:19;;;;;;;4.90;1.98;;;;;;;12.58;80.36;101285.59;5032239;28;20068;-73
2022/06/20 03:47:52;;;;;;;5.97;2.08;;;;;;;12.64;79.64;101287.03;5032079;28;20034;-73
2022/06/20 03:50:27;;;;;;;9.02;2.35;;;;;;;12.72;79.95;101298.22;5031121;28;20115;-73
2022/06/20 03:53:28;;;;;;;8.25;2.20;;;;;;;12.79;78.83;101315.03;5030270;28;20076;-73
2022/06/20 03:56:05;;;;;;;6.78;1.90;;;;;;;12.83;80.02;101317.44;5030061;28;20045;-73
2022/06/20 03:58:40;;;;;;;7.00;2.15;;;;;;;12.89;79.41;101329.75;5031966;28;20570;-72
2022/06/20 04:01:16;;;;;;;5.45;2.42;;;;;;;12.94;79.34;101319.34;5031703;28;20094;-72
2022/06/20 04:03:47;;;;;;;9.45;1.92;;;;;;;12.98;79.42;101319.00;5042461;28;20038;-71
2022/06/20 04:06:21;;;;;;;9.05;2.67;;;;;;;13.02;79.76;101320.53;5031181;28;20083;-71
2022/06/20 04:11:47;;;;;;;8.80;2.00;;;;;;;13.11;80.29;101324.44;5031403;28;20033;-73
2022/06/20 04:14:19;;;;;;;5.05;1.98;;;;;;;13.13;80.35;101324.28;5032105;28;20396;-72
2022/06/20 04:18:27;;;;;;;8.48;3.05;;;;;;;13.14;80.43;101331.50;5029194;28;20037;-72
2022/06/20 04:19:51;;;;;;;;;;;;;;;13.23;78.95;101339.91;5031056;28;20112;-72
2022/06/20 04:22:24;;;;;;;6.53;1.92;;;;;;;13.21;81.08;101343.72;5029768;28;19964;-73
2022/06/20 04:25:12;;;;;;;9.02;2.20;;;;;;;13.24;80.60;101357.16;5031469;28;20125;-73
2022/06/20 04:27:52;;;;;;;6.57;2.13;;;;;;;13.26;80.41;101347.00;5031237;28;20505;-72
2022/06/20 04:30:32;;;;;;;6.40;2.63;;;;;;;13.30;80.69;101355.84;5031144;28;20455;-73
2022/06/20 04:33:03;;;;;;;5.95;2.10;;;;;;;13.31;81.18;101354.84;5041193;28;20052;-72
2022/06/20 04:35:34;;;;;;;6.13;1.95;;;;;;;13.33;80.22;101348.28;5033122;28;20041;-72
2022/06/20 04:38:23;;;;;;;6.00;2.00;;;;;;;13.37;78.95;101354.38;5031506;28;20049;-73
2022/06/20 04:40:59;;;;;;;5.22;2.00;;;;;;;13.41;79.75;101353.16;5039177;28;20127;-73
2022/06/20 04:43:33;;;;;;;8.57;2.15;;;;;;;13.46;80.46;101359.16;5028771;28;20056;-73
2022/06/20 04:46:13;;;;;;;5.35;1.73;;;;;;;13.52;78.85;101362.31;5031173;28;20049;-72
2022/06/20 04:48:38;;;;;;;10.68;2.28;;;;;;;13.58;79.82;101368.28;5046649;28;20037;-72
2022/06/20 04:51:12;;;;;;;7.47;2.00;;;;;;;13.62;80.85;101372.53;5030371;28;20048;-73
2022/06/20 04:53:42;;;;;;;7.25;2.15;;;;;;;13.69;80.75;101374.66;5030680;28;20033;-73
2022/06/20 04:56:12;;;;;;;9.07;2.33;;;;;;;13.81;79.39;101389.25;5046378;28;20451;-72
2022/06/20 04:58:52;;;;;;;4.75;1.98;;;;;;;13.94;79.07;101379.13;5037135;28;20043;-73
2022/06/20 05:01:19;;;;;;;7.25;2.30;;;;;;;14.01;79.60;101379.50;5030299;28;20037;-73
2022/06/20 05:04:05;;;;;;;7.90;1.98;;;;;;;14.08;78.43;101374.41;5041821;28;20495;-72
2022/06/20 05:06:32;;;;;;;5.75;2.13;;;;;;;14.13;77.54;101374.91;5041955;28;20120;-73
2022/06/20 05:09:16;;;;;;;10.82;2.28;;;;;;;14.20;77.95;101378.91;5047458;28;20033;-72
2022/06/20 05:11:49;;;;;;;5.95;1.83;;;;;;;14.24;77.80;101380.41;5044786;28;20033;-71
2022/06/20 05:14:23;;;;;;;6.05;2.03;;;;;;;14.28;77.44;101385.53;5029799;28;20037;-71
2022/06/20 05:16:52;;;;;;;4.82;2.15;;;;;;;14.27;77.63;101386.53;5044877;28;20048;-74
2022/06/20 05:19:25;;;;;;;8.70;2.10;;;;;;;14.29;77.46;101378.19;5043717;28;20108;-72
2022/06/20 05:21:56;;;;;;;9.00;2.20;;;;;;;14.32;78.74;101385.28;5046427;28;20115;-72
2022/06/20 05:24:24;;;;;;;9.85;2.42;;;;;;;14.36;77.68;101389.50;5047731;28;20275;-72
2022/06/20 05:26:52;;;;;;;6.82;2.50;;;;;;;14.40;77.66;101405.56;5043547;28;20037;-71
2022/06/20 05:29:40;;;;;;;6.45;2.22;;;;;;;14.41;78.41;101406.44;5041860;28;20086;-72
2022/06/20 05:32:11;;;;;;;5.30;2.00;;;;;;;14.44;78.13;101397.97;5057797;28;20032;-73
2022/06/20 05:34:58;;;;;;;10.10;2.85;;;;;;;14.46;78.21;101396.00;5043886;28;20083;-71
2022/06/20 05:37:42;;;;;;;5.95;2.03;;;;;;;14.46;78.61;101390.53;5045783;28;20075;-72
2022/06/20 05:40:08;;;;;;;12.48;2.40;;;;;;;14.45;78.59;101396.97;5045590;28;20037;-71
2022/06/20 05:42:34;;;;;;;5.15;1.85;;;;;;;14.44;79.94;101396.13;5042243;28;20049;-71
2022/06/20 05:45:00;;;;;;;5.13;1.63;;;;;;;14.49;77.96;101393.03;5041986;28;20040;-71
2022/06/20 05:47:30;;;;;;;10.07;3.08;;;;;;;14.51;78.12;101381.00;5045195;28;20021;-71
2022/06/20 05:50:20;;;;;;;7.63;1.98;;;;;;;14.49;77.20;101387.56;5052154;28;20032;-71
2022/06/20 05:52:47;;;;;;;5.43;1.70;;;;;;;14.49;75.98;101384.84;5030139;28;20060;-71
2022/06/20 05:55:21;;;;;;;6.35;2.30;;;;;;;14.56;76.72;101383.34;5044288;28;20488;-72
2022/06/20 05:57:50;;;;;;;9.52;2.00;;;;;;;14.69;75.88;101395.06;5042063;28;20434;-71
2022/06/20 06:00:21;;;;;;;9.18;1.88;;;;;;;14.83;75.38;101404.00;5044072;28;20020;-72
2022/06/20 06:02:55;;;;;;;6.85;2.17;;;;;;;14.91;74.91;101407.88;5045865;28;20568;-72
2022/06/20 06:05:28;;;;;;;13.48;2.53;;;;;;;14.90;75.19;101414.34;5042416;28;20135;-70
2022/06/20 06:08:09;;;;;;;5.63;1.80;;;;;;;15.02;75.61;101420.72;5045709;28;20464;-71
2022/06/20 06:10:58;;;;;;;6.57;2.38;;;;;;;15.04;75.32;101415.97;5043614;28;20036;-71
2022/06/20 06:13:36;;;;;;;8.57;2.25;;;;;;;14.97;74.38;101412.88;5043060;28;20532;-71
2022/06/20 06:19:16;;;;;;;9.35;2.20;;;;;;;14.92;74.43;101406.00;5042802;28;20803;-72
2022/06/20 06:21:43;;;;;;;7.45;2.20;;;;;;;14.89;74.19;101406.25;5043400;28;20167;-69
2022/06/20 06:24:12;;;;;;;7.05;2.10;;;;;;;14.96;74.24;101407.50;5044349;28;20100;-71
2022/06/20 06:26:40;;;;;;;5.30;2.00;;;;;;;14.98;73.86;101411.00;5043031;28;20685;-71
2022/06/20 06:29:16;;;;;;;9.02;2.40;;;;;;;15.04;72.99;101413.22;5037528;28;20036;-70
2022/06/20 06:31:42;;;;;;;7.93;1.90;;;;;;;15.09;73.32;101413.72;5036028;28;20427;-71
2022/06/20 06:34:35;;;;;;;12.52;2.70;;;;;;;15.27;72.81;101416.81;5043710;28;20033;-71
2022/06/20 06:37:07;;;;;;;5.55;1.90;;;;;;;15.20;70.98;101410.06;5046966;28;20136;-71
2022/06/20 06:40:10;;;;;;;3.75;2.00;;;;;;;15.09;71.87;101421.94;5044897;28;20044;-69
2022/06/20 06:42:37;;;;;;;4.65;1.65;;;;;;;15.30;71.85;101416.56;5048614;28;20045;-72
2022/06/20 06:45:06;;;;;;;8.45;1.92;;;;;;;15.47;71.29;101426.09;5061019;28;20033;-72
2022/06/20 06:47:38;;;;;;;2.88;1.60;;;;;;;15.54;70.28;101424.59;5053627;28;20391;-70
2022/06/20 06:50:35;;;;;;;7.90;2.00;;;;;;;15.53;69.71;101429.22;5045193;28;20091;-72
2022/06/20 06:53:20;;;;;;;5.75;2.20;;;;;;;15.73;70.20;101440.41;5046419;28;20114;-72
2022/06/20 06:55:51;;;;;;;10.65;1.83;;;;;;;15.91;67.89;101436.09;5051509;28;20511;-71
2022/06/20 06:58:33;;;;;;;6.55;2.03;;;;;;;16.01;68.16;101442.53;5041886;28;20505;-72
2022/06/20 07:01:19;;;;;;;5.18;2.08;;;;;;;16.01;69.20;101439.78;5045450;28;20040;-72
2022/06/20 07:03:51;;;;;;;5.85;2.35;;;;;;;16.00;67.08;101446.28;5044746;28;20045;-71
2022/06/20 07:06:25;;;;;;;5.85;1.92;;;;;;;16.19;67.42;101448.31;5031458;28;20038;-72
2022/06/20 07:08:59;;;;;;;5.40;2.00;;;;;;;16.27;67.58;101451.28;5031245;28;20044;-73
2022/06/20 07:11:26;;;;;;;4.93;2.15;;;;;;;16.25;68.39;101458.75;5041836;28;20089;-71
2022/06/20 07:14:10;;;;;;;6.18;1.92;;;;;;;16.06;65.76;101464.97;5040812;28;20083;-71
2022/06/20 07:16:41;;;;;;;5.63;2.03;;;;;;;16.08;66.99;101462.06;5040474;28;20378;-71
2022/06/20 07:19:08;;;;;;;6.45;1.77;;;;;;;16.21;67.63;101467.38;5047109;28;20037;-71
2022/06/20 07:21:37;;;;;;;9.07;2.35;;;;;;;16.26;67.18;101474.22;5046713;28;20044;-71
2022/06/20 07:24:08;;;;;;;5.43;1.83;;;;;;;16.20;67.55;101465.66;5048895;28;20035;-72
2022/06/20 07:26:41;;;;;;;3.30;1.83;;;;;;;16.11;67.37;101472.81;5047268;28;20120;-71
2022/06/20 07:29:30;;;;;;;6.40;2.03;;;;;;;15.99;67.47;101465.59;5039232;28;20035;-72
2022/06/20 07:32:05;;;;;;;6.18;2.10;;;;;;;16.03;66.34;101464.34;5048870;28;20536;-72
2022/06/20 07:34:39;;;;;;;6.03;1.90;;;;;;;16.01;66.28;101472.72;5053323;28;20045;-72
2022/06/20 07:37:12;;;;;;;4.90;1.83;;;;;;;16.00;66.37;101461.88;5049990;28;20103;-71
2022/06/20 07:39:50;;;;;;;9.13;2.35;;;;;;;15.89;65.77;101465.53;5047211;28;21040;-72
2022/06/20 07:42:32;;;;;;;8.77;2.05;;;;;;;15.91;66.76;101463.53;5050639;28;20059;-71
2022/06/20 07:45:05;;;;;;;6.72;2.10;;;;;;;16.02;67.78;101458.00;5045616;28;20048;-73
2022/06/20 07:47:44;;;;;;;5.45;2.42;;;;;;;16.23;66.45;101462.66;5046098;28;20453;-73
2022/06/20 07:50:17;;;;;;;8.70;2.50;;;;;;;16.20;63.79;101469.25;5044842;28;20041;-71
2022/06/20 07:52:49;;;;;;;7.82;2.22;;;;;;;16.21;65.35;101475.63;5050419;28;20416;-72
2022/06/20 07:55:20;;;;;;;4.68;1.98;;;;;;;16.10;61.82;101482.03;5047557;28;20348;-73
2022/06/20 07:57:59;;;;;;;4.90;2.10;;;;;;;16.08;63.39;101473.91;5043375;28;20651;-73
2022/06/20 08:00:30;;;;;;;7.20;2.35;;;;;;;16.12;62.06;101476.41;5044817;28;20033;-72
2022/06/20 08:03:09;;;;;;;5.00;2.13;;;;;;;16.32;65.00;101479.19;5049602;28;20052;-71
2022/06/20 08:06:17;;;;;;;7.22;1.95;;;;;;;16.49;63.03;101477.72;5061969;28;20431;-72
2022/06/20 08:09:00;;;;;;;6.95;2.50;;;;;;;16.62;62.84;101480.25;5060647;28;20193;-75
2022/06/20 08:11:42;;;;;;;9.23;2.67;;;;;;;17.32;65.70;101476.75;5060631;28;20171;-74
2022/06/20 08:14:18;;;;;;;;;;;;;;;17.96;61.95;101474.59;5045496;28;20060;-72
2022/06/20 08:16:47;;;;;;;7.35;3.00;;;;;;;18.97;61.19;101482.31;5037169;28;20368;-74
2022/06/20 08:19:12;;;;;;;6.38;2.20;;;;;;;19.26;52.51;101471.19;5031938;28;20451;-74
2022/06/20 08:21:42;;;;;;;8.25;1.98;;;;;;;19.20;50.62;101473.66;5047982;28;20032;-75
2022/06/20 08:24:13;;;;;;;6.72;2.05;;;;;;;19.43;55.84;101474.13;5046738;28;20494;-73
2022/06/20 08:26:50;;;;;;;5.03;2.05;;;;;;;19.51;50.78;101475.13;5045167;28;20464;-74
2022/06/20 08:29:34;;;;;;;4.80;1.92;;;;;;;19.56;51.90;101477.41;5030805;28;20733;-73
2022/06/20 08:32:12;;;;;;;4.13;1.88;;;;;;;19.87;52.23;101477.97;5042755;28;20106;-74
2022/06/20 08:34:52;;;;;;;5.28;2.20;;;;;;;20.27;53.98;101490.44;5047033;28;20044;-73
2022/06/20 08:37:23;;;;;;;3.53;1.80;;;;;;;20.92;50.88;101490.13;5045235;28;20115;-76
2022/06/20 08:40:30;;;;;;;6.72;2.03;;;;;;;21.03;51.25;101487.97;5043102;28;20174;-75
2022/06/20 08:43:30;;;;;;;6.07;1.95;;;;;;;21.06;53.84;101490.41;5049666;28;20051;-73
2022/06/20 08:46:16;;;;;;;6.53;1.85;;;;;;;21.26;47.25;101492.91;5033338;28;20037;-74
2022/06/20 08:49:16;;;;;;;6.07;2.40;;;;;;;20.54;50.76;101506.09;5030800;28;20049;-72
2022/06/20 08:52:28;;;;;;;11.25;2.20;;;;;;;20.73;49.63;101503.13;5030183;28;20049;-74
2022/06/20 08:55:15;;;;;;;11.88;2.20;;;;;;;20.41;50.87;101511.13;5045166;28;20108;-73
2022/06/20 08:57:40;;;;;;;4.25;2.13;;;;;;;20.55;51.26;101508.69;5044250;28;20802;-71
2022/06/20 09:00:17;;;;;;;5.10;1.98;;;;;;;21.24;52.00;101515.25;5036258;28;20036;-73
2022/06/20 09:03:15;;;;;;;6.55;2.20;;;;;;;21.69;51.93;101511.34;5045167;28;20063;-72
2022/06/20 09:05:56;;;;;;;5.68;1.80;;;;;;;22.53;50.26;101510.31;5064052;28;20115;-72
2022/06/20 09:08:43;;;;;;;6.28;1.88;;;;;;;22.54;45.19;101522.28;5065208;28;20123;-73
2022/06/20 09:11:35;;;;;;;4.45;2.10;;;;;;;21.79;47.65;101525.03;5044627;28;20456;-72
2022/06/20 09:14:19;;;;;;;6.90;2.70;;;;;;;21.29;49.74;101526.69;5044278;28;20066;-71
2022/06/20 09:17:37;;;;;;;12.48;2.78;;;;;;;20.93;49.68;101533.34;5046368;28;20112;-72
2022/06/20 09:20:15;;;;;;;7.30;2.55;;;;;;;20.67;49.48;101531.44;5031789;28;20045;-70
2022/06/20 09:22:57;;;;;;;6.65;2.70;;;;;;;21.11;51.28;101534.19;5046115;28;20530;-71
2022/06/20 09:25:49;;;;;;;6.38;2.53;;;;;;;21.20;47.89;101532.34;5045615;28;20037;-72
2022/06/20 09:28:48;;;;;;;8.13;2.20;;;;;;;20.71;47.28;101538.41;5058895;28;20368;-72
2022/06/20 09:31:23;;;;;;;5.22;2.42;;;;;;;20.23;47.04;101531.34;5043515;28;20036;-73
2022/06/20 09:34:16;;;;;;;9.63;2.15;;;;;;;20.29;49.38;101536.25;5043028;28;20041;-74
2022/06/20 09:37:14;;;;;;;5.70;1.92;;;;;;;21.15;47.88;101530.06;5045642;28;20041;-72
2022/06/20 09:40:10;;;;;;;16.30;2.95;;;;;;;22.20;50.63;101530.75;5045162;28;20033;-73
2022/06/20 09:42:57;;;;;;;6.13;2.58;;;;;;;22.64;44.84;101529.38;5049587;28;20064;-73
2022/06/20 09:45:31;;;;;;;13.38;3.08;;;;;;;22.66;45.14;101529.19;5042340;28;20112;-73
2022/06/20 09:48:19;;;;;;;12.05;2.88;;;;;;;22.07;44.48;101522.88;5047342;28;20090;-74
2022/06/20 09:51:05;;;;;;;5.65;2.42;;;;;;;22.09;45.90;101527.19;5049776;28;20048;-73
2022/06/20 09:54:02;;;;;;;7.32;2.05;;;;;;;22.78;46.03;101515.84;5046714;28;20488;-73
2022/06/20 09:56:33;;;;;;;6.55;2.70;;;;;;;22.94;42.07;101524.16;5043920;28;20034;-73
2022/06/20 09:59:10;;;;;;;9.45;2.65;;;;;;;22.91;42.76;101514.31;5045595;28;20047;-72
2022/06/20 10:02:13;;;;;;;7.78;2.38;;;;;;;23.02;42.64;101513.06;5046325;28;20044;-74
2022/06/20 10:04:51;;;;;;;6.55;2.70;;;;;;;22.63;42.59;101527.66;5044678;28;20063;-74
2022/06/20 10:07:38;;;;;;;5.97;2.88;;;;;;;22.58;44.65;101518.97;5047387;28;20469;-72
2022/06/20 10:10:18;;;;;;;12.27;3.05;;;;;;;23.45;45.28;101521.97;5045610;28;20429;-72
2022/06/20 10:12:57;;;;;;;10.30;3.80;;;;;;;23.71;40.50;101526.44;5044610;28;20116;-72
2022/06/20 10:15:35;;;;;;;5.32;2.58;;;;;;;23.89;42.85;101527.03;5036740;28;20461;-73
2022/06/20 10:18:20;;;;;;;7.80;3.00;;;;;;;24.45;42.11;101526.88;5028430;28;20107;-73
2022/06/20 10:21:16;;;;;;;8.57;3.10;;;;;;;23.96;41.64;101530.81;5028626;28;20064;-74
2022/06/20 10:23:44;;;;;;;10.23;2.80;;;;;;;23.32;38.48;101524.47;5028490;28;20392;-74
2022/06/20 10:26:19;;;;;;;7.90;3.40;;;;;;;23.25;39.15;101524.28;5037173;28;20020;-72
2022/06/20 10:29:12;;;;;;;10.57;2.85;;;;;;;23.78;43.39;101538.53;5034620;28;20582;-72
2022/06/20 10:31:44;;;;;;;6.93;2.67;;;;;;;23.93;43.36;101543.16;5028725;28;20141;-71
2022/06/20 10:34:19;;;;;;;;;;;;;;;24.29;43.31;101547.28;5036307;28;20033;-71
2022/06/20 10:36:51;;;;;;;5.35;2.58;;;;;;;24.41;41.50;101545.84;5027034;28;19913;-74
2022/06/20 10:39:35;;;;;;;;;;;;;;;24.68;42.07;101555.56;5028807;28;20482;-73
2022/06/20 10:42:07;;;;;;;6.25;2.40;;;;;;;24.63;38.22;101546.91;5028591;28;19925;-73
2022/06/20 10:45:15;;;;;;;7.68;2.20;;;;;;;24.84;40.73;101552.63;5028401;28;20641;-74
2022/06/20 10:47:55;;;;;;;7.07;2.67;;;;;;;24.45;39.59;101563.06;5026923;28;20042;-73
2022/06/20 10:50:32;;;;;;;6.80;2.40;;;;;;;23.92;37.18;101555.34;5032951;28;20067;-70
2022/06/20 10:53:17;;;;;;;6.25;2.50;;;;;;;24.16;39.71;101559.91;5048470;28;20052;-73
2022/06/20 10:55:54;;;;;;;5.57;2.35;;;;;;;24.77;41.29;101562.78;5048026;28;20547;-75
2022/06/20 10:58:30;;;;;;;8.02;2.53;;;;;;;24.77;39.48;101562.78;5038559;28;20041;-72
2022/06/20 11:01:12;;;;;;;7.45;2.40;;;;;;;25.13;39.84;101568.59;5028108;28;20043;-74
2022/06/20 11:03:58;;;;;;;8.07;2.88;;;;;;;25.24;39.79;101567.25;5042396;28;20114;-72
2022/06/20 11:06:47;;;;;;;5.00;2.28;;;;;;;25.44;39.49;101571.22;5027703;28;20033;-74
2022/06/20 11:09:36;;;;;;;9.95;2.55;;;;;;;26.26;43.27;101564.63;5027764;28;20064;-73
2022/06/20 11:12:22;;;;;;;6.38;2.20;;;;;;;26.95;39.14;101564.03;5029592;28;20051;-72
2022/06/20 11:15:07;;;;;;;4.93;2.25;;;;;;;27.14;39.44;101568.09;5027981;28;20471;-74
2022/06/20 11:18:00;;;;;;;7.10;2.53;;;;;;;27.00;36.82;101583.00;5027659;28;20037;-72
2022/06/20 11:20:33;;;;;;;7.80;2.55;;;;;;;27.27;38.05;101575.72;5027425;28;20120;-72
2022/06/20 11:23:14;;;;;;;7.32;2.70;;;;;;;27.05;34.06;101572.09;5028111;28;20112;-74
2022/06/20 11:26:05;;;;;;;9.07;2.80;;;;;;;27.03;38.66;101571.44;5027942;28;20049;-72
2022/06/20 11:29:12;;;;;;;5.75;2.55;;;;;;;27.21;36.75;101578.28;5028647;28;20045;-72
2022/06/20 11:32:02;;;;;;;7.20;2.55;;;;;;;26.80;33.26;101566.94;5031092;28;20519;-69
2022/06/20 11:34:33;;;;;;;8.10;2.38;;;;;;;27.25;36.51;101561.97;5059979;28;20166;-72
2022/06/20 11:37:34;;;;;;;5.90;2.50;;;;;;;27.29;36.30;101563.31;5055816;28;20033;-74
2022/06/20 11:40:00;;;;;;;8.95;2.78;;;;;;;26.32;35.73;101568.56;5053453;28;20407;-74
2022/06/20 11:42:47;;;;;;;6.70;2.35;;;;;;;26.28;36.99;101567.22;5048673;28;20064;-73
2022/06/20 11:45:24;;;;;;;7.45;2.40;;;;;;;26.07;36.75;101568.91;5042875;28;20032;-73
2022/06/20 11:48:02;;;;;;;9.90;2.60;;;;;;;25.40;37.16;101575.44;5048898;28;20055;-72
2022/06/20 11:50:40;;;;;;;13.35;2.70;;;;;;;25.72;38.71;101569.69;5060923;28;20112;-73
2022/06/20 11:53:37;;;;;;;8.93;2.85;;;;;;;26.42;39.11;101571.88;5062596;28;20044;-72
2022/06/20 11:56:33;;;;;;;10.48;2.80;;;;;;;26.55;34.36;101572.06;5045346;28;20037;-73
2022/06/20 11:59:12;;;;;;;11.07;2.75;;;;;;;25.61;35.12;101571.03;5046409;28;20075;-74
2022/06/20 12:01:49;;;;;;;6.13;2.40;;;;;;;25.51;37.10;101570.44;5038027;28;20480;-72
2022/06/20 12:04:25;;;;;;;3.83;2.20;;;;;;;25.62;38.94;101564.41;5044257;28;20385;-72
2022/06/20 12:07:11;;;;;;;6.50;2.40;;;;;;;26.11;36.50;101573.03;5042905;28;20025;-71
2022/06/20 12:09:59;;;;;;;8.82;2.20;;;;;;;26.53;35.32;101576.97;5070792;28;20040;-72
2022/06/20 12:12:43;;;;;;;5.88;2.50;;;;;;;26.30;35.22;101565.06;5064969;28;20064;-72
2022/06/20 12:15:30;;;;;;;8.07;2.10;;;;;;;25.34;34.96;101570.63;5045229;28;20045;-74
2022/06/20 12:18:17;;;;;;;5.18;2.08;;;;;;;24.59;35.78;101568.69;5049373;28;20104;-73